sensor_id;sensor_type;location;lat;lon;timestamp;pressure;altitude;pressure_sealevel;temperature;humidity
64298;BME280;50639;53.270;7.956;2023-07-09T00:00:41;101847.19;;;21.82;58.51
64298;BME280;50639;53.270;7.956;2023-07-09T00:03:09;101847.56;;;21.74;58.65
64298;BME280;50639;53.270;7.956;2023-07-09T00:05:35;101848.53;;;21.68;58.84
64298;BME280;50639;53.270;7.956;2023-07-09T00:08:01;101847.84;;;21.61;58.88
64298;BME280;50639;53.270;7.956;2023-07-09T00:10:26;101845.25;;;21.54;59.33
64298;BME280;50639;53.270;7.956;2023-07-09T00:12:52;101859.31;;;21.51;59.87
64298;BME280;50639;53.270;7.956;2023-07-09T00:15:17;101850.22;;;21.46;59.50
64298;BME280;50639;53.270;7.956;2023-07-09T00:17:43;101862.84;;;21.40;59.68
64298;BME280;50639;53.270;7.956;2023-07-09T00:20:12;101858.47;;;21.39;59.49
64298;BME280;50639;53.270;7.956;2023-07-09T00:22:42;101861.69;;;21.36;59.79
64298;BME280;50639;53.270;7.956;2023-07-09T00:25:13;101851.19;;;21.28;60.02
64298;BME280;50639;53.270;7.956;2023-07-09T00:27:42;101860.47;;;21.20;60.40
64298;BME280;50639;53.270;7.956;2023-07-09T00:30:22;101861.16;;;21.16;60.56
64298;BME280;50639;53.270;7.956;2023-07-09T00:32:49;101861.06;;;21.11;60.40
64298;BME280;50639;53.270;7.956;2023-07-09T00:35:14;101859.03;;;21.06;60.62
64298;BME280;50639;53.270;7.956;2023-07-09T00:37:42;101853.50;;;21.01;60.74
64298;BME280;50639;53.270;7.956;2023-07-09T00:40:28;101856.28;;;20.94;61.32
64298;BME280;50639;53.270;7.956;2023-07-09T00:42:55;101857.00;;;20.90;61.00
64298;BME280;50639;53.270;7.956;2023-07-09T00:45:23;101850.97;;;20.88;60.79
64298;BME280;50639;53.270;7.956;2023-07-09T00:48:00;101861.22;;;20.86;60.92
64298;BME280;50639;53.270;7.956;2023-07-09T00:50:37;101854.25;;;20.78;61.50
64298;BME280;50639;53.270;7.956;2023-07-09T00:53:21;101852.59;;;20.77;61.15
64298;BME280;50639;53.270;7.956;2023-07-09T00:55:56;101850.44;;;20.67;61.75
64298;BME280;50639;53.270;7.956;2023-07-09T00:58:25;101845.72;;;20.63;61.64
64298;BME280;50639;53.270;7.956;2023-07-09T01:00:56;101846.31;;;20.65;61.32
64298;BME280;50639;53.270;7.956;2023-07-09T01:05:52;101848.53;;;20.56;62.05
64298;BME280;50639;53.270;7.956;2023-07-09T01:08:20;101851.72;;;20.53;61.74
64298;BME280;50639;53.270;7.956;2023-07-09T01:10:46;101855.72;;;20.51;61.85
64298;BME280;50639;53.270;7.956;2023-07-09T01:13:12;101847.53;;;20.39;62.08
64298;BME280;50639;53.270;7.956;2023-07-09T01:15:39;101848.22;;;20.35;61.80
64298;BME280;50639;53.270;7.956;2023-07-09T01:18:04;101852.28;;;20.25;62.24
64298;BME280;50639;53.270;7.956;2023-07-09T01:20:30;101852.16;;;20.20;62.41
64298;BME280;50639;53.270;7.956;2023-07-09T01:22:56;101842.69;;;20.23;62.28
64298;BME280;50639;53.270;7.956;2023-07-09T01:25:25;101848.00;;;20.18;62.45
64298;BME280;50639;53.270;7.956;2023-07-09T01:27:51;101845.28;;;20.18;62.25
64298;BME280;50639;53.270;7.956;2023-07-09T01:32:49;101842.13;;;20.21;62.00
64298;BME280;50639;53.270;7.956;2023-07-09T01:35:18;101837.53;;;20.21;61.94
64298;BME280;50639;53.270;7.956;2023-07-09T01:38:07;101840.00;;;20.23;61.50
64298;BME280;50639;53.270;7.956;2023-07-09T01:40:54;101835.25;;;20.18;61.66
64298;BME280;50639;53.270;7.956;2023-07-09T01:43:32;101843.03;;;20.15;62.07
64298;BME280;50639;53.270;7.956;2023-07-09T01:45:58;101844.56;;;20.11;61.91
64298;BME280;50639;53.270;7.956;2023-07-09T01:48:26;101848.19;;;20.05;62.76
64298;BME280;50639;53.270;7.956;2023-07-09T01:50:52;101848.03;;;20.00;62.15
64298;BME280;50639;53.270;7.956;2023-07-09T01:53:21;101858.03;;;19.99;62.11
64298;BME280;50639;53.270;7.956;2023-07-09T01:55:49;101858.50;;;19.96;62.31
64298;BME280;50639;53.270;7.956;2023-07-09T01:58:16;101851.03;;;19.91;62.42
64298;BME280;50639;53.270;7.956;2023-07-09T02:00:41;101854.06;;;19.83;62.71
64298;BME280;50639;53.270;7.956;2023-07-09T02:03:07;101843.91;;;19.79;62.60
64298;BME280;50639;53.270;7.956;2023-07-09T02:05:35;101849.78;;;19.76;62.81
64298;BME280;50639;53.270;7.956;2023-07-09T02:08:02;101850.06;;;19.68;63.49
64298;BME280;50639;53.270;7.956;2023-07-09T02:10:27;101854.66;;;19.67;63.18
64298;BME280;50639;53.270;7.956;2023-07-09T02:12:53;101851.78;;;19.62;63.45
64298;BME280;50639;53.270;7.956;2023-07-09T02:15:19;101849.75;;;19.58;63.64
64298;BME280;50639;53.270;7.956;2023-07-09T02:17:44;101851.66;;;19.57;63.59
64298;BME280;50639;53.270;7.956;2023-07-09T02:20:10;101842.06;;;19.54;63.50
64298;BME280;50639;53.270;7.956;2023-07-09T02:22:37;101853.81;;;19.48;63.94
64298;BME280;50639;53.270;7.956;2023-07-09T02:25:04;101839.25;;;19.43;63.92
64298;BME280;50639;53.270;7.956;2023-07-09T02:27:30;101838.41;;;19.24;64.63
64298;BME280;50639;53.270;7.956;2023-07-09T02:29:55;101835.00;;;19.29;64.35
64298;BME280;50639;53.270;7.956;2023-07-09T02:32:26;101836.53;;;19.25;64.77
64298;BME280;50639;53.270;7.956;2023-07-09T02:34:53;101821.88;;;19.07;64.81
64298;BME280;50639;53.270;7.956;2023-07-09T02:37:26;101832.66;;;19.14;65.31
64298;BME280;50639;53.270;7.956;2023-07-09T02:39:52;101835.50;;;19.19;64.57
64298;BME280;50639;53.270;7.956;2023-07-09T02:42:20;101831.75;;;19.20;64.39
64298;BME280;50639;53.270;7.956;2023-07-09T02:44:47;101830.78;;;19.14;64.50
64298;BME280;50639;53.270;7.956;2023-07-09T02:47:12;101823.97;;;19.05;64.92
64298;BME280;50639;53.270;7.956;2023-07-09T02:49:39;101830.44;;;19.04;64.86
64298;BME280;50639;53.270;7.956;2023-07-09T02:52:06;101824.41;;;19.02;65.14
64298;BME280;50639;53.270;7.956;2023-07-09T02:54:32;101836.91;;;19.03;64.77
64298;BME280;50639;53.270;7.956;2023-07-09T02:56:58;101834.06;;;18.98;65.02
64298;BME280;50639;53.270;7.956;2023-07-09T02:59:23;101838.63;;;18.98;65.09
64298;BME280;50639;53.270;7.956;2023-07-09T03:01:49;101840.13;;;18.94;65.28
64298;BME280;50639;53.270;7.956;2023-07-09T03:04:15;101845.16;;;18.90;65.22
64298;BME280;50639;53.270;7.956;2023-07-09T03:06:41;101855.38;;;18.88;65.08
64298;BME280;50639;53.270;7.956;2023-07-09T03:09:08;101844.97;;;18.85;65.12
64298;BME280;50639;53.270;7.956;2023-07-09T03:11:34;101844.34;;;18.83;65.80
64298;BME280;50639;53.270;7.956;2023-07-09T03:14:01;101837.53;;;18.81;65.66
64298;BME280;50639;53.270;7.956;2023-07-09T03:16:31;101841.28;;;18.79;65.97
64298;BME280;50639;53.270;7.956;2023-07-09T03:18:58;101840.03;;;18.75;65.78
64298;BME280;50639;53.270;7.956;2023-07-09T03:21:25;101846.50;;;18.74;66.10
64298;BME280;50639;53.270;7.956;2023-07-09T03:23:53;101851.69;;;18.76;66.60
64298;BME280;50639;53.270;7.956;2023-07-09T03:26:18;101849.88;;;18.70;66.44
64298;BME280;50639;53.270;7.956;2023-07-09T03:28:44;101848.78;;;18.77;66.20
64298;BME280;50639;53.270;7.956;2023-07-09T03:31:10;101852.53;;;18.76;66.32
64298;BME280;50639;53.270;7.956;2023-07-09T03:33:36;101849.00;;;18.76;66.36
64298;BME280;50639;53.270;7.956;2023-07-09T03:36:01;101847.53;;;18.73;66.90
64298;BME280;50639;53.270;7.956;2023-07-09T03:38:30;101850.22;;;18.80;66.56
64298;BME280;50639;53.270;7.956;2023-07-09T03:40:55;101844.81;;;18.80;66.23
64298;BME280;50639;53.270;7.956;2023-07-09T03:43:22;101846.91;;;18.78;66.35
64298;BME280;50639;53.270;7.956;2023-07-09T03:45:48;101843.97;;;18.79;66.55
64298;BME280;50639;53.270;7.956;2023-07-09T03:48:15;101846.06;;;18.77;66.65
64298;BME280;50639;53.270;7.956;2023-07-09T03:50:43;101858.72;;;18.84;66.50
64298;BME280;50639;53.270;7.956;2023-07-09T03:53:09;101847.25;;;18.88;66.32
64298;BME280;50639;53.270;7.956;2023-07-09T03:55:35;101853.03;;;18.92;66.22
64298;BME280;50639;53.270;7.956;2023-07-09T03:58:01;101847.03;;;18.90;65.76
64298;BME280;50639;53.270;7.956;2023-07-09T04:00:28;101843.88;;;18.93;65.71
64298;BME280;50639;53.270;7.956;2023-07-09T04:02:54;101834.25;;;18.97;65.89
64298;BME280;50639;53.270;7.956;2023-07-09T04:05:22;101836.50;;;19.00;65.72
64298;BME280;50639;53.270;7.956;2023-07-09T04:07:47;101836.09;;;19.03;65.38
64298;BME280;50639;53.270;7.956;2023-07-09T04:10:13;101836.25;;;19.08;65.51
64298;BME280;50639;53.270;7.956;2023-07-09T04:12:39;101835.66;;;19.06;64.85
64298;BME280;50639;53.270;7.956;2023-07-09T04:15:05;101835.38;;;19.14;64.60
64298;BME280;50639;53.270;7.956;2023-07-09T04:17:31;101831.81;;;19.13;64.79
64298;BME280;50639;53.270;7.956;2023-07-09T04:19:57;101838.22;;;19.19;64.89
64298;BME280;50639;53.270;7.956;2023-07-09T04:22:22;101836.75;;;19.23;64.68
64298;BME280;50639;53.270;7.956;2023-07-09T04:24:48;101840.00;;;19.32;64.35
64298;BME280;50639;53.270;7.956;2023-07-09T04:27:15;101842.63;;;19.38;63.97
64298;BME280;50639;53.270;7.956;2023-07-09T04:29:40;101834.41;;;19.45;63.57
64298;BME280;50639;53.270;7.956;2023-07-09T04:32:08;101835.72;;;19.42;64.19
64298;BME280;50639;53.270;7.956;2023-07-09T04:34:37;101838.78;;;19.52;63.83
64298;BME280;50639;53.270;7.956;2023-07-09T04:37:14;101829.28;;;19.62;64.08
64298;BME280;50639;53.270;7.956;2023-07-09T04:39:43;101836.03;;;19.71;62.99
64298;BME280;50639;53.270;7.956;2023-07-09T04:42:14;101839.53;;;19.78;62.73
64298;BME280;50639;53.270;7.956;2023-07-09T04:44:40;101840.91;;;19.87;62.20
64298;BME280;50639;53.270;7.956;2023-07-09T04:47:06;101844.94;;;19.96;61.83
64298;BME280;50639;53.270;7.956;2023-07-09T04:49:31;101853.00;;;20.03;61.72
64298;BME280;50639;53.270;7.956;2023-07-09T04:51:58;101846.03;;;20.07;62.15
64298;BME280;50639;53.270;7.956;2023-07-09T04:54:25;101857.06;;;20.12;62.12
64298;BME280;50639;53.270;7.956;2023-07-09T04:56:52;101851.09;;;20.21;61.65
64298;BME280;50639;53.270;7.956;2023-07-09T04:59:18;101861.94;;;20.21;61.98
64298;BME280;50639;53.270;7.956;2023-07-09T05:01:44;101848.41;;;20.33;61.36
64298;BME280;50639;53.270;7.956;2023-07-09T05:04:09;101854.53;;;20.47;61.21
64298;BME280;50639;53.270;7.956;2023-07-09T05:06:35;101838.03;;;20.60;60.46
64298;BME280;50639;53.270;7.956;2023-07-09T05:09:00;101852.47;;;20.72;60.19
64298;BME280;50639;53.270;7.956;2023-07-09T05:11:27;101855.09;;;20.79;59.83
64298;BME280;50639;53.270;7.956;2023-07-09T05:13:53;101852.03;;;20.87;60.08
64298;BME280;50639;53.270;7.956;2023-07-09T05:16:20;101854.88;;;20.92;59.99
64298;BME280;50639;53.270;7.956;2023-07-09T05:18:46;101850.78;;;21.01;60.15
64298;BME280;50639;53.270;7.956;2023-07-09T05:21:12;101840.94;;;21.12;59.32
64298;BME280;50639;53.270;7.956;2023-07-09T05:23:37;101842.16;;;21.16;58.96
64298;BME280;50639;53.270;7.956;2023-07-09T05:26:03;101843.59;;;21.30;58.64
64298;BME280;50639;53.270;7.956;2023-07-09T05:28:30;101845.03;;;21.32;59.07
64298;BME280;50639;53.270;7.956;2023-07-09T05:30:58;101845.84;;;21.45;58.86
64298;BME280;50639;53.270;7.956;2023-07-09T05:33:24;101842.53;;;21.54;58.57
64298;BME280;50639;53.270;7.956;2023-07-09T05:35:50;101847.84;;;21.61;58.13
64298;BME280;50639;53.270;7.956;2023-07-09T05:38:17;101850.56;;;21.61;57.94
64298;BME280;50639;53.270;7.956;2023-07-09T05:40:45;101846.06;;;21.66;58.44
64298;BME280;50639;53.270;7.956;2023-07-09T05:43:11;101852.09;;;21.57;57.58
64298;BME280;50639;53.270;7.956;2023-07-09T05:45:38;101840.25;;;21.74;57.94
64298;BME280;50639;53.270;7.956;2023-07-09T05:48:04;101851.69;;;21.88;57.39
64298;BME280;50639;53.270;7.956;2023-07-09T05:50:33;101853.09;;;22.02;57.37
64298;BME280;50639;53.270;7.956;2023-07-09T05:53:00;101850.13;;;22.04;56.89
64298;BME280;50639;53.270;7.956;2023-07-09T05:55:27;101857.53;;;22.20;57.04
64298;BME280;50639;53.270;7.956;2023-07-09T05:57:53;101850.72;;;22.34;55.74
64298;BME280;50639;53.270;7.956;2023-07-09T06:00:19;101858.84;;;22.46;55.57
64298;BME280;50639;53.270;7.956;2023-07-09T06:02:45;101854.41;;;22.57;55.54
64298;BME280;50639;53.270;7.956;2023-07-09T06:05:10;101856.41;;;22.61;55.39
64298;BME280;50639;53.270;7.956;2023-07-09T06:07:36;101862.50;;;22.51;55.48
64298;BME280;50639;53.270;7.956;2023-07-09T06:10:03;101859.38;;;22.60;55.70
64298;BME280;50639;53.270;7.956;2023-07-09T06:12:29;101865.97;;;22.64;55.42
64298;BME280;50639;53.270;7.956;2023-07-09T06:14:55;101860.81;;;22.79;54.36
64298;BME280;50639;53.270;7.956;2023-07-09T06:17:20;101862.41;;;22.75;54.40
64298;BME280;50639;53.270;7.956;2023-07-09T06:19:45;101863.91;;;22.82;54.86
64298;BME280;50639;53.270;7.956;2023-07-09T06:22:11;101868.69;;;22.92;54.53
64298;BME280;50639;53.270;7.956;2023-07-09T06:24:36;101867.53;;;23.05;54.55
64298;BME280;50639;53.270;7.956;2023-07-09T06:27:02;101871.00;;;23.17;54.23
64298;BME280;50639;53.270;7.956;2023-07-09T06:29:28;101875.31;;;23.13;54.31
64298;BME280;50639;53.270;7.956;2023-07-09T06:31:53;101868.44;;;23.10;53.62
64298;BME280;50639;53.270;7.956;2023-07-09T06:34:18;101871.66;;;23.24;53.86
64298;BME280;50639;53.270;7.956;2023-07-09T06:36:44;101869.09;;;23.34;53.57
64298;BME280;50639;53.270;7.956;2023-07-09T06:39:15;101872.97;;;23.55;53.01
64298;BME280;50639;53.270;7.956;2023-07-09T06:41:41;101869.00;;;23.62;53.43
64298;BME280;50639;53.270;7.956;2023-07-09T06:44:24;101875.00;;;23.81;52.24
64298;BME280;50639;53.270;7.956;2023-07-09T06:46:51;101873.81;;;23.77;52.61
64298;BME280;50639;53.270;7.956;2023-07-09T06:49:17;101880.44;;;23.81;52.32
64298;BME280;50639;53.270;7.956;2023-07-09T06:51:45;101882.69;;;23.68;52.66
64298;BME280;50639;53.270;7.956;2023-07-09T06:54:12;101878.00;;;23.63;52.31
64298;BME280;50639;53.270;7.956;2023-07-09T06:56:37;101880.44;;;23.81;52.05
64298;BME280;50639;53.270;7.956;2023-07-09T06:59:03;101887.59;;;23.87;51.82
64298;BME280;50639;53.270;7.956;2023-07-09T07:01:29;101886.66;;;23.98;51.44
64298;BME280;50639;53.270;7.956;2023-07-09T07:03:56;101882.25;;;24.19;51.95
64298;BME280;50639;53.270;7.956;2023-07-09T07:06:24;101887.50;;;24.21;52.39
64298;BME280;50639;53.270;7.956;2023-07-09T07:08:50;101885.97;;;24.30;52.50
64298;BME280;50639;53.270;7.956;2023-07-09T07:11:15;101888.97;;;24.55;51.64
64298;BME280;50639;53.270;7.956;2023-07-09T07:13:41;101893.16;;;24.63;51.87
64298;BME280;50639;53.270;7.956;2023-07-09T07:16:10;101892.06;;;24.64;51.79
64298;BME280;50639;53.270;7.956;2023-07-09T07:18:38;101892.50;;;24.78;51.31
64298;BME280;50639;53.270;7.956;2023-07-09T07:21:04;101892.66;;;24.66;51.18
64298;BME280;50639;53.270;7.956;2023-07-09T07:23:31;101887.97;;;24.88;51.25
64298;BME280;50639;53.270;7.956;2023-07-09T07:25:57;101891.66;;;25.04;50.78
64298;BME280;50639;53.270;7.956;2023-07-09T07:28:22;101896.16;;;25.20;50.80
64298;BME280;50639;53.270;7.956;2023-07-09T07:30:58;101893.69;;;25.19;50.37
64298;BME280;50639;53.270;7.956;2023-07-09T07:33:24;101891.53;;;25.21;50.67
64298;BME280;50639;53.270;7.956;2023-07-09T07:35:49;101901.13;;;25.23;50.83
64298;BME280;50639;53.270;7.956;2023-07-09T07:38:15;101903.81;;;25.18;49.89
64298;BME280;50639;53.270;7.956;2023-07-09T07:40:44;101898.34;;;25.18;50.74
64298;BME280;50639;53.270;7.956;2023-07-09T07:43:11;101891.00;;;25.24;50.29
64298;BME280;50639;53.270;7.956;2023-07-09T07:45:41;101890.44;;;25.22;51.36
64298;BME280;50639;53.270;7.956;2023-07-09T07:48:07;101893.06;;;25.43;49.64
64298;BME280;50639;53.270;7.956;2023-07-09T07:50:32;101891.28;;;25.59;50.27
64298;BME280;50639;53.270;7.956;2023-07-09T07:52:57;101893.53;;;25.67;49.79
64298;BME280;50639;53.270;7.956;2023-07-09T07:55:23;101898.06;;;25.57;49.13
64298;BME280;50639;53.270;7.956;2023-07-09T07:57:48;101900.34;;;25.65;49.03
64298;BME280;50639;53.270;7.956;2023-07-09T08:00:14;101900.34;;;25.70;48.59
64298;BME280;50639;53.270;7.956;2023-07-09T08:02:41;101903.16;;;25.80;48.79
64298;BME280;50639;53.270;7.956;2023-07-09T08:05:07;101901.31;;;25.91;49.02
64298;BME280;50639;53.270;7.956;2023-07-09T08:07:32;101899.44;;;26.06;48.57
64298;BME280;50639;53.270;7.956;2023-07-09T08:09:58;101893.97;;;26.01;48.15
64298;BME280;50639;53.270;7.956;2023-07-09T08:12:23;101892.09;;;26.17;48.79
64298;BME280;50639;53.270;7.956;2023-07-09T08:14:49;101886.38;;;26.23;48.61
64298;BME280;50639;53.270;7.956;2023-07-09T08:17:14;101881.84;;;26.54;48.39
64298;BME280;50639;53.270;7.956;2023-07-09T08:19:44;101884.59;;;26.70;48.82
64298;BME280;50639;53.270;7.956;2023-07-09T08:22:10;101885.16;;;26.87;47.17
64298;BME280;50639;53.270;7.956;2023-07-09T08:24:36;101886.56;;;26.94;47.46
64298;BME280;50639;53.270;7.956;2023-07-09T08:27:02;101887.66;;;27.09;46.41
64298;BME280;50639;53.270;7.956;2023-07-09T08:29:28;101883.81;;;27.15;46.75
64298;BME280;50639;53.270;7.956;2023-07-09T08:31:54;101879.94;;;26.85;47.25
64298;BME280;50639;53.270;7.956;2023-07-09T08:34:19;101889.03;;;27.01;47.44
64298;BME280;50639;53.270;7.956;2023-07-09T08:36:45;101889.28;;;27.10;46.98
64298;BME280;50639;53.270;7.956;2023-07-09T08:39:10;101883.00;;;27.14;46.70
64298;BME280;50639;53.270;7.956;2023-07-09T08:41:40;101888.75;;;27.23;47.32
64298;BME280;50639;53.270;7.956;2023-07-09T08:44:33;101883.78;;;27.40;46.08
64298;BME280;50639;53.270;7.956;2023-07-09T08:49:56;101886.25;;;27.57;45.50
64298;BME280;50639;53.270;7.956;2023-07-09T08:52:40;101880.44;;;27.74;44.96
64298;BME280;50639;53.270;7.956;2023-07-09T08:55:12;101877.09;;;27.87;45.17
64298;BME280;50639;53.270;7.956;2023-07-09T08:57:41;101873.75;;;28.00;45.11
64298;BME280;50639;53.270;7.956;2023-07-09T09:00:17;101871.50;;;28.12;44.84
64298;BME280;50639;53.270;7.956;2023-07-09T09:02:52;101884.09;;;28.28;45.07
64298;BME280;50639;53.270;7.956;2023-07-09T09:05:22;101873.00;;;28.43;44.22
64298;BME280;50639;53.270;7.956;2023-07-09T09:07:51;101871.78;;;28.60;44.14
64298;BME280;50639;53.270;7.956;2023-07-09T09:10:30;101872.88;;;28.59;44.26
64298;BME280;50639;53.270;7.956;2023-07-09T09:13:09;101873.13;;;28.67;42.73
64298;BME280;50639;53.270;7.956;2023-07-09T09:15:38;101880.38;;;28.92;42.20
64298;BME280;50639;53.270;7.956;2023-07-09T09:18:26;101873.56;;;29.13;42.50
64298;BME280;50639;53.270;7.956;2023-07-09T09:21:05;101877.34;;;29.23;42.29
64298;BME280;50639;53.270;7.956;2023-07-09T09:23:45;101877.41;;;29.17;40.63
64298;BME280;50639;53.270;7.956;2023-07-09T09:26:34;101882.00;;;29.27;42.36
64298;BME280;50639;53.270;7.956;2023-07-09T09:29:10;101884.34;;;29.10;44.48
64298;BME280;50639;53.270;7.956;2023-07-09T09:31:36;101883.00;;;29.07;43.20
64298;BME280;50639;53.270;7.956;2023-07-09T09:34:02;101884.16;;;29.01;42.24
64298;BME280;50639;53.270;7.956;2023-07-09T09:36:27;101878.53;;;29.11;41.98
64298;BME280;50639;53.270;7.956;2023-07-09T09:38:53;101881.16;;;29.27;42.75
64298;BME280;50639;53.270;7.956;2023-07-09T09:41:25;101884.38;;;29.39;42.99
64298;BME280;50639;53.270;7.956;2023-07-09T09:43:53;101883.38;;;29.25;41.94
64298;BME280;50639;53.270;7.956;2023-07-09T09:46:21;101887.16;;;29.34;41.54
64298;BME280;50639;53.270;7.956;2023-07-09T09:48:49;101883.25;;;29.40;42.34
64298;BME280;50639;53.270;7.956;2023-07-09T09:51:17;101877.72;;;29.69;41.37
64298;BME280;50639;53.270;7.956;2023-07-09T09:53:51;101881.56;;;29.91;41.77
64298;BME280;50639;53.270;7.956;2023-07-09T09:56:27;101878.53;;;30.17;42.51
64298;BME280;50639;53.270;7.956;2023-07-09T09:58:55;101876.69;;;30.31;41.39
64298;BME280;50639;53.270;7.956;2023-07-09T10:01:30;101882.88;;;30.42;40.31
64298;BME280;50639;53.270;7.956;2023-07-09T10:04:11;101872.00;;;30.50;39.58
64298;BME280;50639;53.270;7.956;2023-07-09T10:07:03;101876.72;;;30.26;38.81
64298;BME280;50639;53.270;7.956;2023-07-09T10:09:50;101871.44;;;29.87;41.13
64298;BME280;50639;53.270;7.956;2023-07-09T10:12:32;101878.25;;;29.95;41.46
64298;BME280;50639;53.270;7.956;2023-07-09T10:18:08;101866.78;;;30.67;39.48
64298;BME280;50639;53.270;7.956;2023-07-09T10:20:48;101871.94;;;30.88;38.18
64298;BME280;50639;53.270;7.956;2023-07-09T10:32:03;101874.34;;;30.94;38.13
64298;BME280;50639;53.270;7.956;2023-07-09T10:34:45;101880.56;;;30.86;39.12
64298;BME280;50639;53.270;7.956;2023-07-09T10:40:15;101882.44;;;31.51;38.42
64298;BME280;50639;53.270;7.956;2023-07-09T10:42:50;101880.56;;;31.65;39.10
64298;BME280;50639;53.270;7.956;2023-07-09T10:45:54;101875.97;;;31.74;38.96
64298;BME280;50639;53.270;7.956;2023-07-09T10:48:34;101879.09;;;31.54;38.27
64298;BME280;50639;53.270;7.956;2023-07-09T10:51:04;101874.34;;;31.40;38.38
64298;BME280;50639;53.270;7.956;2023-07-09T10:53:53;101876.00;;;31.28;38.53
64298;BME280;50639;53.270;7.956;2023-07-09T10:56:27;101882.97;;;31.53;37.56
64298;BME280;50639;53.270;7.956;2023-07-09T10:59:02;101879.75;;;31.92;39.42
64298;BME280;50639;53.270;7.956;2023-07-09T11:01:37;101874.69;;;31.94;36.63
64298;BME280;50639;53.270;7.956;2023-07-09T11:04:26;101873.66;;;32.03;36.31
64298;BME280;50639;53.270;7.956;2023-07-09T11:07:01;101872.44;;;32.09;37.28
64298;BME280;50639;53.270;7.956;2023-07-09T11:09:35;101871.97;;;31.66;37.87
64298;BME280;50639;53.270;7.956;2023-07-09T11:12:18;101864.78;;;31.79;37.18
64298;BME280;50639;53.270;7.956;2023-07-09T11:14:58;101864.19;;;31.68;36.83
64298;BME280;50639;53.270;7.956;2023-07-09T11:17:33;101860.88;;;31.94;38.85
64298;BME280;50639;53.270;7.956;2023-07-09T11:23:01;101862.81;;;32.21;38.32
64298;BME280;50639;53.270;7.956;2023-07-09T11:26:15;101861.16;;;32.33;37.76
64298;BME280;50639;53.270;7.956;2023-07-09T11:31:42;101850.84;;;32.25;36.35
64298;BME280;50639;53.270;7.956;2023-07-09T11:34:16;101842.03;;;32.23;36.66
64298;BME280;50639;53.270;7.956;2023-07-09T11:36:50;101849.03;;;32.43;37.71
64298;BME280;50639;53.270;7.956;2023-07-09T11:42:26;101843.22;;;32.89;35.56
64298;BME280;50639;53.270;7.956;2023-07-09T11:45:08;101839.03;;;32.56;35.54
64298;BME280;50639;53.270;7.956;2023-07-09T11:47:43;101832.94;;;32.67;34.87
64298;BME280;50639;53.270;7.956;2023-07-09T11:50:46;101835.41;;;32.91;34.35
64298;BME280;50639;53.270;7.956;2023-07-09T11:53:31;101829.13;;;32.77;34.48
64298;BME280;50639;53.270;7.956;2023-07-09T11:56:00;101831.25;;;33.02;34.05
64298;BME280;50639;53.270;7.956;2023-07-09T11:58:31;101826.66;;;32.98;33.80
64298;BME280;50639;53.270;7.956;2023-07-09T12:00:58;101827.44;;;33.20;34.69
64298;BME280;50639;53.270;7.956;2023-07-09T12:04:22;101822.09;;;33.24;35.65
64298;BME280;50639;53.270;7.956;2023-07-09T12:06:53;101812.72;;;33.42;35.46
64298;BME280;50639;53.270;7.956;2023-07-09T12:09:23;101820.38;;;33.45;34.11
64298;BME280;50639;53.270;7.956;2023-07-09T12:11:50;101816.91;;;33.31;32.96
64298;BME280;50639;53.270;7.956;2023-07-09T12:14:21;101802.00;;;33.18;32.76
64298;BME280;50639;53.270;7.956;2023-07-09T12:16:51;101812.16;;;33.23;33.04
64298;BME280;50639;53.270;7.956;2023-07-09T12:19:22;101811.91;;;33.11;33.19
64298;BME280;50639;53.270;7.956;2023-07-09T12:21:58;101807.75;;;33.22;34.54
64298;BME280;50639;53.270;7.956;2023-07-09T12:24:26;101799.63;;;33.34;33.33
64298;BME280;50639;53.270;7.956;2023-07-09T12:26:57;101793.72;;;33.58;33.24
64298;BME280;50639;53.270;7.956;2023-07-09T12:29:28;101788.00;;;33.72;33.06
64298;BME280;50639;53.270;7.956;2023-07-09T12:31:58;101793.94;;;33.87;33.50
64298;BME280;50639;53.270;7.956;2023-07-09T12:34:24;101784.03;;;33.95;32.52
64298;BME280;50639;53.270;7.956;2023-07-09T12:36:52;101787.94;;;34.03;32.77
64298;BME280;50639;53.270;7.956;2023-07-09T12:39:26;101781.06;;;33.74;33.36
64298;BME280;50639;53.270;7.956;2023-07-09T12:41:58;101777.47;;;33.91;33.93
64298;BME280;50639;53.270;7.956;2023-07-09T12:44:26;101772.25;;;34.07;32.63
64298;BME280;50639;53.270;7.956;2023-07-09T12:46:53;101772.25;;;33.89;32.29
64298;BME280;50639;53.270;7.956;2023-07-09T12:49:24;101772.94;;;34.12;33.31
64298;BME280;50639;53.270;7.956;2023-07-09T12:51:54;101765.91;;;34.06;32.39
64298;BME280;50639;53.270;7.956;2023-07-09T12:54:21;101766.19;;;33.79;31.23
64298;BME280;50639;53.270;7.956;2023-07-09T12:56:51;101766.38;;;33.82;32.26
64298;BME280;50639;53.270;7.956;2023-07-09T12:59:23;101763.13;;;34.23;31.94
64298;BME280;50639;53.270;7.956;2023-07-09T13:01:55;101751.72;;;34.42;31.19
64298;BME280;50639;53.270;7.956;2023-07-09T13:04:31;101758.56;;;34.19;31.04
64298;BME280;50639;53.270;7.956;2023-07-09T13:06:57;101757.91;;;34.13;30.87
64298;BME280;50639;53.270;7.956;2023-07-09T13:09:25;101765.25;;;34.18;30.49
64298;BME280;50639;53.270;7.956;2023-07-09T13:11:55;101746.81;;;34.30;31.00
64298;BME280;50639;53.270;7.956;2023-07-09T13:14:27;101755.63;;;34.41;31.67
64298;BME280;50639;53.270;7.956;2023-07-09T13:17:06;101751.09;;;34.28;30.58
64298;BME280;50639;53.270;7.956;2023-07-09T13:19:32;101754.81;;;34.15;31.77
64298;BME280;50639;53.270;7.956;2023-07-09T13:21:58;101759.06;;;34.47;30.86
64298;BME280;50639;53.270;7.956;2023-07-09T13:24:27;101757.72;;;34.61;29.42
64298;BME280;50639;53.270;7.956;2023-07-09T13:26:53;101763.25;;;34.61;29.69
64298;BME280;50639;53.270;7.956;2023-07-09T13:29:20;101752.34;;;34.74;29.16
64298;BME280;50639;53.270;7.956;2023-07-09T13:31:47;101758.53;;;34.62;30.91
64298;BME280;50639;53.270;7.956;2023-07-09T13:34:19;101755.56;;;34.67;28.78